El Hierro > ESTACION METEOROLÓGICA Ayuntamiento El Pinar

DATOS ACTUALES Online

Ultima actulizacion 8 minutos

15.3 ºC

Temperatura

82

Humedad (%)

1022.8

Presión (mb)

0

Precipitación (mm)

21.2 S

Viento (Km/h)

DATOS DIARIOS

Temperatura últimas 24 horas (ºC)

Humedad últimas 24 horas (%)

Presión atmosférica últimas 24 horas (mb)

Precipitaciones últimas 23 horas (mm)

Viento últimas 24 horas (Km/h)

Hora Temperatura (°C) ºC Precipitación (mm) mm Presión (mb) mb Humedad (%) % Viento (Km/h) km/h
28 - 11:00 15.4 0 1022 86 22.3 W
28 - 12:00 15 0 1022 86 25.6 W
28 - 13:00 15.6 0 1022 86 6.5 W
28 - 14:00 15.7 0 1022 85 24.5 SW
28 - 15:00 16.6 0 1021 82 13.7 W
28 - 16:00 16.9 0 1021 79 9.7 SW
28 - 17:00 17.3 0 1021 74 22.3 SW
28 - 18:00 17.2 0 1021 71 17.6 SO
28 - 19:00 16.2 0 1021 78 6.8 W
28 - 20:00 14.9 0 1021 84 19.4 SW
28 - 21:00 14.7 0 1021 88 35.3 S
28 - 22:00 14.6 0 1022 87 11.5 S
28 - 23:00 14.4 0 1022 91 9 W
29 - 00:00 13.9 0 1022 89 14.8 W
29 - 01:00 14.1 0 1021 88 29.5 SW
29 - 02:00 14.1 0 1021 89 20.9 SW
29 - 03:00 13.8 0 1020 90 9 W
29 - 04:00 14.1 0 1021 87 15.5 W
29 - 05:00 14.1 0 1021 89 20.5 SW
29 - 06:00 14.2 0 1021 86 22.7 SW
29 - 07:00 13.8 0 1022 88 15.8 SW
29 - 08:00 13.9 0 1022 92 13.3 W
29 - 09:00 14.1 0 1022 92 15.1 SW
29 - 10:00 14.9 0 1023 81 24.1 SW
29 - 11:00 15.3 0 1023 82 21.2 S
Apalmet utiliza cookies propias y de terceros para mejorar la usabilidad y la experiencia web. Política de cookies.